Time;durP1;ratioP1;P1;durP2;ratioP2;P2;SDS_P1;SDS_P2;PMS_P1;PMS_P2;Temp;Humidity;BMP_temperature;BMP_pressure;BME280_temperature;BME280_humidity;BME280_pressure;Samples;Min_cycle;Max_cycle;Signal;HPM_P1;HPM_P2
2022/06/16 00:01:04;;;;;;;;;;;;;;;29.50;40.40;94393.44;5086157;28;7253;-57
2022/06/16 00:03:38;;;;;;;;;;;;;;;29.48;41.03;94390.47;5074122;28;8750;-57
2022/06/16 00:06:05;;;;;;;;;;;;;;;29.51;40.52;94391.41;5087557;28;9551;-57
2022/06/16 00:08:41;;;;;;;;;;;;;;;29.51;40.81;94388.66;5078951;28;7630;-57
2022/06/16 00:11:24;;;;;;;;;;;;;;;29.54;40.57;94393.09;5058612;28;7180;-57
2022/06/16 00:13:54;;;;;;;;;;;;;;;29.54;40.87;94396.63;5065830;28;9392;-57
2022/06/16 00:16:41;;;;;;;;;;;;;;;29.51;40.29;94397.72;5087060;28;8782;-57
2022/06/16 00:19:08;;;;;;;;;;;;;;;29.48;40.59;94378.63;5086540;28;7169;-57
2022/06/16 00:21:42;;;;;;;;;;;;;;;29.45;40.71;94380.44;5071244;28;7255;-57
2022/06/16 00:24:17;;;;;;;;;;;;;;;29.44;40.63;94378.97;5091104;28;7259;-57
2022/06/16 00:26:42;;;;;;;;;;;;;;;29.43;41.01;94376.72;5091147;28;7237;-57
2022/06/16 00:29:08;;;;;;;;;;;;;;;29.42;40.64;94373.22;5091629;28;7207;-57
2022/06/16 00:31:35;;;;;;;;;;;;;;;29.43;40.70;94371.16;5071678;28;6991;-57
2022/06/16 00:34:01;;;;;;;;;;;;;;;29.44;40.59;94364.34;5089287;28;7117;-57
2022/06/16 00:36:38;;;;;;;;;;;;;;;29.41;40.86;94363.41;5093364;28;7484;-57
2022/06/16 00:39:05;;;;;;;;;;;;;;;29.43;41.11;94360.09;5078195;28;6972;-57
2022/06/16 00:41:32;;;;;;;;;;;;;;;29.44;40.81;94367.88;5090191;28;7400;-57
2022/06/16 00:44:12;;;;;;;;;;;;;;;29.45;40.55;94360.31;5080702;28;7555;-57
2022/06/16 00:46:43;;;;;;;;;;;;;;;29.44;40.60;94356.03;5075928;28;6997;-57
2022/06/16 00:49:12;;;;;;;;;;;;;;;29.43;40.81;94349.00;5091109;28;9076;-57
2022/06/16 00:52:02;;;;;;;;;;;;;;;29.45;40.24;94346.47;5073670;28;7087;-57
2022/06/16 00:55:12;;;;;;;;;;;;;;;29.42;40.13;94358.59;5093380;28;9189;-57
2022/06/16 00:57:54;;;;;;;;;;;;;;;29.40;40.94;94347.31;5054903;28;7288;-57
2022/06/16 01:02:50;;;;;;;;;;;;;;;29.38;40.20;94347.13;5071684;28;7006;-57
2022/06/16 01:05:18;;;;;;;;;;;;;;;29.38;40.85;94353.41;5068651;28;7146;-57
2022/06/16 01:08:04;;;;;;;;;;;;;;;29.39;40.14;94359.66;5072472;28;7394;-57
2022/06/16 01:10:46;;;;;;;;;;;;;;;29.41;40.30;94346.78;5048976;28;9765;-57
2022/06/16 01:16:34;;;;;;;;;;;;;;;29.44;40.63;94344.97;5066221;28;7307;-58
2022/06/16 01:19:17;;;;;;;;;;;;;;;29.43;39.88;94341.44;5043016;28;7732;-58
2022/06/16 01:21:53;;;;;;;;;;;;;;;29.45;40.28;94327.06;5051315;28;7201;-57
2022/06/16 01:24:49;;;;;;;;;;;;;;;29.44;40.75;94322.78;5066152;28;9004;-57
2022/06/16 01:27:39;;;;;;;;;;;;;;;29.42;39.81;94317.78;5063008;28;7823;-57
2022/06/16 01:30:07;;;;;;;;;;;;;;;29.42;40.09;94308.72;5053197;28;7914;-57
2022/06/16 01:36:20;;;;;;;;;;;;;;;29.41;40.25;94307.22;5092666;28;7091;-57
2022/06/16 01:39:39;;;;;;;;;;;;;;;29.43;40.52;94310.94;5093709;28;7261;-57
2022/06/16 01:42:15;;;;;;;;;;;;;;;29.42;40.17;94303.94;4988144;28;6991;-58
2022/06/16 01:45:09;;;;;;;;;;;;;;;29.44;39.83;94311.69;4972877;28;8709;-57
2022/06/16 01:47:59;;;;;;;;;;;;;;;29.44;40.26;94318.00;4975450;28;7049;-57
2022/06/16 01:50:41;;;;;;;;;;;;;;;29.44;40.21;94356.78;4979865;28;9158;-57
2022/06/16 01:53:47;;;;;;;;;;;;;;;29.43;40.08;94382.25;4976932;28;7143;-57
2022/06/16 01:56:42;;;;;;;;;;;;;;;29.43;40.28;94383.00;4956289;28;7394;-57
2022/06/16 01:59:54;;;;;;;;;;;;;;;29.42;39.93;94373.22;4956085;28;7491;-57
2022/06/16 02:02:24;;;;;;;;;;;;;;;29.43;39.99;94373.94;4914208;29;9434;-57
2022/06/16 02:05:07;;;;;;;;;;;;;;;29.46;39.77;94365.31;4926273;29;7221;-57
2022/06/16 02:08:17;;;;;;;;;;;;;;;29.45;39.39;94368.63;4934492;29;6987;-57
2022/06/16 02:11:14;;;;;;;;;;;;;;;29.45;39.44;94366.59;4932859;29;7014;-57
2022/06/16 02:13:50;;;;;;;;;;;;;;;29.39;39.60;94343.78;4918127;29;7022;-57
2022/06/16 02:16:32;;;;;;;;;;;;;;;29.41;39.75;94343.25;4922364;29;9147;-57
2022/06/16 02:19:08;;;;;;;;;;;;;;;29.40;39.97;94334.22;4979438;28;7167;-57
2022/06/16 02:21:39;;;;;;;;;;;;;;;29.41;40.04;94318.31;4992102;28;8809;-57
2022/06/16 02:24:14;;;;;;;;;;;;;;;29.40;39.90;94323.13;4989248;28;7370;-57
2022/06/16 02:26:56;;;;;;;;;;;;;;;29.37;39.43;94315.88;4990967;28;7261;-57
2022/06/16 02:29:38;;;;;;;;;;;;;;;29.39;40.01;94340.28;4991311;28;8710;-57
2022/06/16 02:32:25;;;;;;;;;;;;;;;29.38;39.17;94369.28;4991984;28;7279;-57
2022/06/16 02:35:13;;;;;;;;;;;;;;;29.36;39.72;94366.31;5009492;28;9038;-58
2022/06/16 02:38:11;;;;;;;;;;;;;;;29.35;39.70;94360.00;5036117;28;9436;-57
2022/06/16 02:40:58;;;;;;;;;;;;;;;29.35;39.54;94342.63;5083670;28;9107;-57
2022/06/16 02:43:33;;;;;;;;;;;;;;;29.33;39.52;94350.75;5071477;28;7127;-57
2022/06/16 02:46:10;;;;;;;;;;;;;;;29.33;39.91;94356.28;5084061;28;9545;-58
2022/06/16 02:48:57;;;;;;;;;;;;;;;29.32;39.55;94358.31;5058432;28;7055;-57
2022/06/16 02:51:50;;;;;;;;;;;;;;;29.33;39.85;94361.81;5055719;28;9532;-57
2022/06/16 02:54:54;;;;;;;;;;;;;;;29.33;39.65;94356.28;5072967;28;7190;-57
2022/06/16 02:57:26;;;;;;;;;;;;;;;29.33;39.67;94353.50;5072495;28;6944;-57
2022/06/16 03:00:01;;;;;;;;;;;;;;;29.31;39.64;94354.06;5068830;28;7266;-57
2022/06/16 03:02:32;;;;;;;;;;;;;;;29.33;39.19;94356.28;5065758;28;7383;-57
2022/06/16 03:05:04;;;;;;;;;;;;;;;29.31;39.64;94356.06;5066112;28;7898;-57
2022/06/16 03:07:31;;;;;;;;;;;;;;;29.31;39.62;94365.13;5070215;28;7271;-58
2022/06/16 03:09:57;;;;;;;;;;;;;;;29.30;39.65;94363.63;5070679;28;9072;-57
2022/06/16 03:12:27;;;;;;;;;;;;;;;29.32;39.21;94366.63;5071134;28;9196;-57
2022/06/16 03:14:56;;;;;;;;;;;;;;;29.30;39.61;94363.63;5083810;28;6957;-57
2022/06/16 03:17:24;;;;;;;;;;;;;;;29.30;39.65;94371.94;5067849;28;9132;-57
2022/06/16 03:19:52;;;;;;;;;;;;;;;29.30;39.65;94374.72;5088950;28;7162;-58
2022/06/16 03:22:18;;;;;;;;;;;;;;;29.30;39.35;94369.19;5088028;28;6981;-58
2022/06/16 03:24:45;;;;;;;;;;;;;;;29.30;39.70;94379.50;5070597;28;7119;-57
2022/06/16 03:27:13;;;;;;;;;;;;;;;29.29;39.73;94384.31;5084443;28;7240;-58
2022/06/16 03:29:39;;;;;;;;;;;;;;;29.30;39.74;94390.59;5054888;28;7292;-57
2022/06/16 03:32:09;;;;;;;;;;;;;;;29.30;39.30;94391.34;5055050;28;9164;-57
2022/06/16 03:35:00;;;;;;;;;;;;;;;29.27;39.67;94394.44;5076738;28;7252;-57
2022/06/16 03:37:28;;;;;;;;;;;;;;;29.25;39.80;94403.31;5074588;28;7339;-57
2022/06/16 03:40:00;;;;;;;;;;;;;;;29.25;39.97;94402.56;5076008;28;9032;-57
2022/06/16 03:42:30;;;;;;;;;;;;;;;29.26;39.67;94412.34;5108851;28;7379;-57
2022/06/16 03:44:58;;;;;;;;;;;;;;;29.24;39.58;94395.50;5093142;28;9030;-57
2022/06/16 03:47:25;;;;;;;;;;;;;;;29.25;39.88;94402.56;5073664;28;9564;-57
2022/06/16 03:50:02;;;;;;;;;;;;;;;29.24;39.34;94412.88;5074235;28;7246;-57
2022/06/16 03:52:38;;;;;;;;;;;;;;;29.25;39.60;94402.56;5092452;28;8845;-57
2022/06/16 03:55:08;;;;;;;;;;;;;;;29.26;39.95;94417.88;5061225;28;7055;-57
2022/06/16 03:57:38;;;;;;;;;;;;;;;29.24;39.21;94415.66;5057978;28;9292;-57
2022/06/16 04:00:06;;;;;;;;;;;;;;;29.23;39.31;94403.06;5064552;28;8035;-58
2022/06/16 04:02:39;;;;;;;;;;;;;;;29.22;39.25;94406.38;5090709;28;7195;-57
2022/06/16 04:05:14;;;;;;;;;;;;;;;29.20;39.87;94408.94;5078579;28;8972;-57
2022/06/16 04:07:40;;;;;;;;;;;;;;;29.20;39.79;94403.41;5073076;28;6988;-57
2022/06/16 04:10:10;;;;;;;;;;;;;;;29.19;39.49;94404.69;5089597;28;7597;-57
2022/06/16 04:12:49;;;;;;;;;;;;;;;29.16;39.54;94402.94;5095524;28;7310;-57
2022/06/16 04:15:18;;;;;;;;;;;;;;;29.16;39.69;94408.50;5075632;28;7427;-57
2022/06/16 04:17:53;;;;;;;;;;;;;;;29.15;39.64;94404.97;5093673;28;8730;-57
2022/06/16 04:20:29;;;;;;;;;;;;;;;29.17;39.43;94404.50;5074369;28;7012;-57
2022/06/16 04:23:10;;;;;;;;;;;;;;;29.15;39.46;94420.84;5073496;28;9106;-57
2022/06/16 04:25:36;;;;;;;;;;;;;;;29.12;39.36;94425.44;5090144;28;7271;-57
2022/06/16 04:28:06;;;;;;;;;;;;;;;29.08;40.01;94420.22;5087017;28;6944;-57
2022/06/16 04:30:33;;;;;;;;;;;;;;;29.06;39.71;94419.25;5058522;28;8833;-57
2022/06/16 04:32:59;;;;;;;;;;;;;;;29.05;40.00;94415.75;5070668;28;6997;-57
2022/06/16 04:35:27;;;;;;;;;;;;;;;29.05;40.08;94420.53;5076885;28;9214;-57
2022/06/16 04:38:07;;;;;;;;;;;;;;;29.05;39.90;94421.28;5092058;28;7350;-57
2022/06/16 04:40:33;;;;;;;;;;;;;;;29.06;40.33;94430.31;5090959;28;9003;-57
2022/06/16 04:43:06;;;;;;;;;;;;;;;29.04;40.24;94430.88;5064162;28;7063;-57
2022/06/16 04:45:38;;;;;;;;;;;;;;;29.03;40.39;94432.16;5069126;28;6963;-57
2022/06/16 04:48:05;;;;;;;;;;;;;;;29.05;40.26;94429.59;5086696;28;9075;-57
2022/06/16 04:50:33;;;;;;;;;;;;;;;29.07;40.27;94432.59;5091306;28;9396;-57
2022/06/16 04:53:02;;;;;;;;;;;;;;;29.06;40.26;94427.56;5073881;28;9156;-57
2022/06/16 04:55:34;;;;;;;;;;;;;;;29.05;40.39;94426.09;5071970;28;8858;-57
2022/06/16 04:58:05;;;;;;;;;;;;;;;29.08;39.92;94430.53;5079640;28;7273;-57
2022/06/16 05:00:31;;;;;;;;;;;;;;;29.10;40.34;94423.19;5085322;28;7152;-57
2022/06/16 05:02:57;;;;;;;;;;;;;;;29.09;40.23;94432.03;5086852;28;7248;-57
2022/06/16 05:05:31;;;;;;;;;;;;;;;29.07;40.13;94435.34;5070451;28;7253;-57
2022/06/16 05:07:59;;;;;;;;;;;;;;;29.09;39.68;94443.13;5099722;28;9068;-57
2022/06/16 05:10:27;;;;;;;;;;;;;;;29.05;40.03;94435.13;5074650;28;7000;-57
2022/06/16 05:12:57;;;;;;;;;;;;;;;29.03;40.07;94443.25;5072474;28;7000;-57
2022/06/16 05:15:30;;;;;;;;;;;;;;;29.03;40.33;94446.00;5089962;28;7373;-58
2022/06/16 05:17:56;;;;;;;;;;;;;;;29.04;40.24;94441.94;5072778;28;7183;-57
2022/06/16 05:20:37;;;;;;;;;;;;;;;29.04;40.26;94444.72;5087421;28;7520;-57
2022/06/16 05:23:03;;;;;;;;;;;;;;;29.04;41.04;94450.25;5084239;28;8918;-57
2022/06/16 05:25:34;;;;;;;;;;;;;;;29.04;40.71;94447.47;5069752;28;6971;-57
2022/06/16 05:28:00;;;;;;;;;;;;;;;29.02;40.30;94449.28;5087048;28;7280;-57
2022/06/16 05:30:25;;;;;;;;;;;;;;;29.00;40.29;94438.75;5070829;28;9513;-57
2022/06/16 05:32:51;;;;;;;;;;;;;;;28.98;40.25;94446.09;5068859;28;9041;-57
2022/06/16 05:35:20;;;;;;;;;;;;;;;28.94;40.72;94443.66;5062850;28;7261;-57
2022/06/16 05:37:46;;;;;;;;;;;;;;;28.90;40.37;94432.16;5079689;28;8794;-57
2022/06/16 05:40:16;;;;;;;;;;;;;;;28.91;40.61;94439.16;5089067;28;7363;-57
2022/06/16 05:42:45;;;;;;;;;;;;;;;28.92;40.63;94434.38;5086702;28;9874;-57
2022/06/16 05:45:17;;;;;;;;;;;;;;;28.91;40.26;94433.63;5088719;28;7206;-58
2022/06/16 05:47:47;;;;;;;;;;;;;;;28.94;40.42;94435.34;5089403;28;7260;-58
2022/06/16 05:50:18;;;;;;;;;;;;;;;28.92;40.51;94429.59;5059689;28;7215;-58
2022/06/16 05:52:45;;;;;;;;;;;;;;;28.92;41.23;94431.63;5072964;28;7043;-58
2022/06/16 05:55:17;;;;;;;;;;;;;;;28.93;40.68;94442.16;5072447;28;7456;-58
2022/06/16 05:57:50;;;;;;;;;;;;;;;28.94;40.63;94445.69;5085633;28;7844;-58
2022/06/16 06:00:20;;;;;;;;;;;;;;;28.93;40.37;94449.72;5071756;28;6964;-58
2022/06/16 06:03:03;;;;;;;;;;;;;;;28.93;40.67;94444.91;5087817;28;6960;-57
2022/06/16 06:05:30;;;;;;;;;;;;;;;28.94;40.74;94454.72;5075218;28;7325;-58
2022/06/16 06:16:37;;;;;;;;;;;;;;;28.95;40.97;94477.59;5087486;28;9238;-57
2022/06/16 06:19:25;;;;;;;;;;;;;;;28.94;40.89;94471.34;5062263;28;9096;-57
2022/06/16 06:21:58;;;;;;;;;;;;;;;28.94;40.71;94476.13;5067443;28;6951;-57
2022/06/16 06:24:26;;;;;;;;;;;;;;;28.93;41.23;94488.47;5067100;28;10352;-57
2022/06/16 06:27:29;;;;;;;;;;;;;;;28.93;41.15;94480.91;5086014;28;7071;-58
2022/06/16 06:29:55;;;;;;;;;;;;;;;28.91;41.68;94483.47;5087753;28;7251;-57
2022/06/16 06:32:23;;;;;;;;;;;;;;;28.89;41.24;94488.78;5084570;28;7371;-57
2022/06/16 06:34:53;;;;;;;;;;;;;;;28.90;41.30;94487.53;5060603;28;7878;-57
2022/06/16 06:37:23;;;;;;;;;;;;;;;28.89;41.21;94486.03;5054836;28;7240;-57
2022/06/16 06:39:50;;;;;;;;;;;;;;;28.92;41.37;94489.75;5081990;28;8353;-58
2022/06/16 06:42:20;;;;;;;;;;;;;;;28.90;41.04;94486.78;5071975;28;9523;-58
2022/06/16 06:44:49;;;;;;;;;;;;;;;28.88;41.49;94495.59;5073026;28;7626;-58
2022/06/16 06:47:32;;;;;;;;;;;;;;;28.88;41.27;94495.59;5089393;28;7189;-58
2022/06/16 06:49:58;;;;;;;;;;;;;;;28.89;41.16;94505.41;5074214;28;7224;-57
2022/06/16 06:52:31;;;;;;;;;;;;;;;28.88;41.17;94501.13;5076670;28;9494;-58
2022/06/16 06:54:57;;;;;;;;;;;;;;;28.87;41.16;94510.72;5073874;28;8704;-57
2022/06/16 06:57:32;;;;;;;;;;;;;;;28.85;41.11;94504.97;5068521;28;9288;-58
2022/06/16 06:59:59;;;;;;;;;;;;;;;28.86;41.28;94503.69;5074478;28;7269;-57
2022/06/16 07:02:27;;;;;;;;;;;;;;;28.87;41.39;94493.38;5085894;28;7060;-57
2022/06/16 07:05:03;;;;;;;;;;;;;;;28.87;41.40;94494.13;5071753;28;9029;-57
2022/06/16 07:07:33;;;;;;;;;;;;;;;28.86;40.82;94494.66;5084226;28;7566;-57
2022/06/16 07:09:59;;;;;;;;;;;;;;;28.86;41.00;94492.63;5089588;28;9085;-57
2022/06/16 07:12:25;;;;;;;;;;;;;;;28.87;41.41;94493.38;5086325;28;9570;-57
2022/06/16 07:14:54;;;;;;;;;;;;;;;28.86;41.81;94500.91;5085007;28;7081;-57
2022/06/16 07:17:23;;;;;;;;;;;;;;;28.85;41.61;94496.69;5068556;28;7107;-58
2022/06/16 07:19:51;;;;;;;;;;;;;;;28.87;41.39;94502.44;5082664;28;7356;-57
2022/06/16 07:22:19;;;;;;;;;;;;;;;28.88;42.07;94501.13;5069839;28;7102;-57
2022/06/16 07:24:48;;;;;;;;;;;;;;;28.89;41.25;94499.88;5077898;28;6961;-57
2022/06/16 07:27:21;;;;;;;;;;;;;;;28.89;41.18;94499.88;5077867;28;6966;-57
2022/06/16 07:29:50;;;;;;;;;;;;;;;28.90;41.55;94498.63;5081628;28;9118;-57
2022/06/16 07:32:18;;;;;;;;;;;;;;;28.90;41.93;94501.38;5056780;28;7257;-58
2022/06/16 07:34:49;;;;;;;;;;;;;;;28.89;41.75;94501.88;5071064;28;7215;-58
2022/06/16 07:37:17;;;;;;;;;;;;;;;28.89;41.67;94508.19;5088184;28;7263;-58
2022/06/16 07:39:45;;;;;;;;;;;;;;;28.90;41.75;94515.22;5073844;28;7252;-57
2022/06/16 07:42:21;;;;;;;;;;;;;;;28.91;41.90;94513.19;5064144;28;7125;-57
2022/06/16 07:44:49;;;;;;;;;;;;;;;28.93;41.45;94518.94;5077250;28;7120;-57
2022/06/16 07:47:28;;;;;;;;;;;;;;;28.93;41.66;94507.84;5059448;28;7850;-57
2022/06/16 07:50:03;;;;;;;;;;;;;;;28.94;41.50;94517.66;5075675;28;7272;-57
2022/06/16 07:52:36;;;;;;;;;;;;;;;28.92;41.34;94509.91;5076253;28;7256;-57
2022/06/16 07:55:18;;;;;;;;;;;;;;;28.93;41.45;94522.44;5077670;28;7419;-57
2022/06/16 07:57:51;;;;;;;;;;;;;;;28.93;41.85;94525.22;5066326;28;8904;-58
2022/06/16 08:00:25;;;;;;;;;;;;;;;28.93;41.51;94525.22;5075265;28;7201;-57
2022/06/16 08:02:53;;;;;;;;;;;;;;;28.93;41.13;94530.75;5086586;28;6981;-58
2022/06/16 08:05:20;;;;;;;;;;;;;;;28.94;41.59;94529.50;5070720;28;8112;-58
2022/06/16 08:07:48;;;;;;;;;;;;;;;28.92;41.80;94537.59;5066350;28;7463;-57
2022/06/16 08:10:18;;;;;;;;;;;;;;;28.95;41.92;94533.75;5071193;28;7126;-57
2022/06/16 08:12:45;;;;;;;;;;;;;;;28.93;41.61;94536.28;5087628;28;7087;-57
2022/06/16 08:15:12;;;;;;;;;;;;;;;28.95;41.71;94541.28;5069036;28;7211;-58
2022/06/16 08:17:47;;;;;;;;;;;;;;;28.94;41.57;94540.56;5062182;28;7317;-57
2022/06/16 08:20:16;;;;;;;;;;;;;;;28.94;41.61;94546.13;5086095;28;8926;-57
2022/06/16 08:22:47;;;;;;;;;;;;;;;28.94;41.82;94551.66;5081236;28;8876;-57
2022/06/16 08:25:15;;;;;;;;;;;;;;;28.93;41.55;94552.91;5091262;28;7229;-57
2022/06/16 08:27:49;;;;;;;;;;;;;;;28.96;41.78;94549.09;5070149;28;7496;-57
2022/06/16 08:30:18;;;;;;;;;;;;;;;28.95;41.76;94550.34;5071990;28;7074;-57
2022/06/16 08:32:46;;;;;;;;;;;;;;;28.95;42.13;94553.13;5087229;28;7237;-58
2022/06/16 08:35:12;;;;;;;;;;;;;;;28.95;41.94;94549.59;5090201;28;7138;-58
2022/06/16 08:37:41;;;;;;;;;;;;;;;28.96;41.49;94551.13;5064151;28;8803;-58
2022/06/16 08:40:12;;;;;;;;;;;;;;;28.97;41.43;94563.69;5065391;28;9236;-58
2022/06/16 08:42:57;;;;;;;;;;;;;;;28.97;41.79;94555.38;5070995;28;9037;-58
2022/06/16 08:45:38;;;;;;;;;;;;;;;28.97;41.52;94569.97;5085549;28;7029;-58
2022/06/16 08:48:34;;;;;;;;;;;;;;;28.99;41.47;94567.41;5088368;28;7243;-58
2022/06/16 08:51:00;;;;;;;;;;;;;;;29.00;41.31;94571.69;5089269;28;7254;-58
2022/06/16 08:53:39;;;;;;;;;;;;;;;29.00;41.45;94573.69;5069838;28;9199;-58
2022/06/16 08:57:02;;;;;;;;;;;;;;;29.00;41.51;94573.69;5082011;28;7227;-58
2022/06/16 08:59:48;;;;;;;;;;;;;;;29.01;41.50;94577.97;5050335;28;8742;-58
2022/06/16 09:02:54;;;;;;;;;;;;;;;29.01;41.69;94578.69;5050964;28;7202;-58
2022/06/16 09:05:43;;;;;;;;;;;;;;;29.00;41.62;94570.94;5001319;28;7077;-58
2022/06/16 09:08:34;;;;;;;;;;;;;;;29.01;41.63;94575.19;5008385;28;9147;-58
2022/06/16 09:11:13;;;;;;;;;;;;;;;29.01;41.50;94578.69;4985646;28;9094;-58
2022/06/16 09:15:10;;;;;;;;;;;;;;;29.01;41.90;94575.94;4988519;28;7142;-58
2022/06/16 09:17:37;;;;;;;;;;;;;;;29.02;41.82;94571.13;4975767;28;7137;-58
2022/06/16 09:20:05;;;;;;;;;;;;;;;29.02;41.63;94587.75;4980179;28;7281;-58
2022/06/16 09:22:57;;;;;;;;;;;;;;;29.02;41.91;94585.00;4998831;28;7009;-58
2022/06/16 09:25:54;;;;;;;;;;;;;;;29.02;41.80;94587.75;4977299;28;9381;-58
2022/06/16 09:28:43;;;;;;;;;;;;;;;29.02;41.67;94591.28;5000607;28;7502;-58
2022/06/16 09:31:20;;;;;;;;;;;;;;;29.01;41.72;94589.78;5012219;28;9376;-58
2022/06/16 09:34:11;;;;;;;;;;;;;;;29.03;41.24;94597.56;5070111;22;7179;-60
2022/06/16 09:36:49;;;;;;;;;;;;;;;29.00;41.76;94602.13;5054754;28;6998;-59
2022/06/16 09:39:24;;;;;;;;;;;;;;;29.01;41.44;94600.84;5069997;28;7000;-60
2022/06/16 09:45:34;;;;;;;;;;;;;;;29.02;41.89;94596.81;5067938;28;9042;-60
2022/06/16 09:48:13;;;;;;;;;;;;;;;29.02;41.75;94594.06;4982477;28;9341;-60
2022/06/16 09:51:16;;;;;;;;;;;;;;;29.03;41.81;94606.63;4994243;28;8740;-60
2022/06/16 09:53:57;;;;;;;;;;;;;;;29.03;41.48;94606.63;4981531;28;7585;-60
2022/06/16 09:56:54;;;;;;;;;;;;;;;29.04;41.88;94613.66;4989648;28;9714;-60
2022/06/16 09:59:53;;;;;;;;;;;;;;;29.05;41.79;94615.16;4988481;28;8953;-60
2022/06/16 10:02:35;;;;;;;;;;;;;;;29.07;41.76;94614.63;4888468;29;9376;-59
2022/06/16 10:05:25;;;;;;;;;;;;;;;29.09;41.79;94604.50;4896637;29;7708;-59
2022/06/16 10:08:26;;;;;;;;;;;;;;;29.09;41.99;94610.06;4906689;29;7582;-59
2022/06/16 10:11:18;;;;;;;;;;;;;;;29.09;41.79;94610.06;4790874;29;7334;-60
2022/06/16 10:14:06;;;;;;;;;;;;;;;29.13;41.48;94614.53;4801242;29;8823;-60
2022/06/16 10:17:06;;;;;;;;;;;;;;;29.14;41.55;94616.03;4805043;29;6987;-60
2022/06/16 10:19:38;;;;;;;;;;;;;;;29.15;41.93;94609.19;4806983;29;9186;-60
2022/06/16 10:22:09;;;;;;;;;;;;;;;29.16;41.76;94611.47;4815421;29;9173;-60
2022/06/16 10:25:01;;;;;;;;;;;;;;;29.18;41.54;94608.19;4839003;29;7465;-60
2022/06/16 10:28:19;;;;;;;;;;;;;;;29.21;41.56;94615.44;4781043;30;7028;-60
2022/06/16 10:31:00;;;;;;;;;;;;;;;29.21;41.98;94610.63;4792733;29;7523;-60
2022/06/16 10:33:30;;;;;;;;;;;;;;;29.23;41.74;94615.66;4794043;29;7581;-60
2022/06/16 10:36:16;;;;;;;;;;;;;;;29.23;41.58;94615.66;4798445;29;7208;-60
2022/06/16 10:39:21;;;;;;;;;;;;;;;29.23;41.73;94612.88;4814756;29;9307;-60
2022/06/16 10:42:29;;;;;;;;;;;;;;;29.24;41.81;94617.13;4857086;29;7315;-60
2022/06/16 10:45:30;;;;;;;;;;;;;;;29.25;41.20;94610.31;4790738;29;7771;-60
2022/06/16 10:48:19;;;;;;;;;;;;;;;29.25;41.81;94602.78;4822566;29;7496;-60
2022/06/16 10:51:12;;;;;;;;;;;;;;;29.26;41.49;94609.78;4854002;29;9343;-60
2022/06/16 10:54:03;;;;;;;;;;;;;;;29.28;41.60;94614.78;4853965;29;9471;-60
2022/06/16 10:56:30;;;;;;;;;;;;;;;29.27;41.63;94613.31;4849730;29;8791;-60
2022/06/16 10:59:37;;;;;;;;;;;;;;;29.26;41.71;94607.00;4860163;29;6998;-59
2022/06/16 11:02:35;;;;;;;;;;;;;;;29.29;41.97;94610.75;4860506;29;7208;-60
2022/06/16 11:05:09;;;;;;;;;;;;;;;29.28;42.25;94606.47;4873846;29;9625;-60
2022/06/16 11:07:41;;;;;;;;;;;;;;;29.28;42.09;94615.53;4913894;29;9474;-60
2022/06/16 11:10:33;;;;;;;;;;;;;;;29.27;41.71;94611.28;4913499;29;9043;-60
2022/06/16 11:13:25;;;;;;;;;;;;;;;29.29;41.77;94610.75;4902544;29;7277;-60
2022/06/16 11:16:26;;;;;;;;;;;;;;;29.28;41.69;94601.69;4913299;29;7287;-60
2022/06/16 11:18:58;;;;;;;;;;;;;;;29.29;41.52;94605.22;4954242;28;6992;-60
2022/06/16 11:21:30;;;;;;;;;;;;;;;29.28;41.90;94601.69;5007494;28;8811;-60
2022/06/16 11:24:00;;;;;;;;;;;;;;;29.30;41.91;94606.69;5064854;28;7960;-60
2022/06/16 11:26:44;;;;;;;;;;;;;;;29.30;41.91;94601.16;5069543;28;7030;-60
2022/06/16 11:29:11;;;;;;;;;;;;;;;29.32;41.56;94606.94;5070245;28;7048;-60
2022/06/16 11:32:00;;;;;;;;;;;;;;;29.33;41.96;94611.19;5069214;28;7646;-60
2022/06/16 11:34:28;;;;;;;;;;;;;;;29.31;41.88;94608.97;5065724;28;9041;-60
2022/06/16 11:37:09;;;;;;;;;;;;;;;29.30;42.11;94610.22;5049535;28;7188;-60
2022/06/16 11:39:52;;;;;;;;;;;;;;;29.29;41.96;94605.97;5048658;28;9407;-60
2022/06/16 11:42:40;;;;;;;;;;;;;;;29.32;41.54;94615.25;5064625;28;7214;-60
2022/06/16 11:45:35;;;;;;;;;;;;;;;29.31;41.50;94608.19;5046102;28;7333;-60
2022/06/16 11:48:38;;;;;;;;;;;;;;;29.32;42.33;94613.19;5051089;28;7275;-60
2022/06/16 11:51:54;;;;;;;;;;;;;;;29.32;42.22;94607.66;5068219;28;9113;-61
2022/06/16 11:54:32;;;;;;;;;;;;;;;29.36;41.48;94605.31;4970890;28;7019;-60
2022/06/16 11:57:22;;;;;;;;;;;;;;;29.33;41.27;94613.97;4971806;28;7189;-61
2022/06/16 12:00:00;;;;;;;;;;;;;;;29.37;41.47;94606.06;4963910;28;9050;-60
2022/06/16 12:02:28;;;;;;;;;;;;;;;29.38;41.38;94607.56;4967711;28;7055;-61
2022/06/16 12:05:08;;;;;;;;;;;;;;;29.42;40.48;94619.09;4970126;28;7699;-61
2022/06/16 12:08:10;;;;;;;;;;;;;;;29.44;40.96;94608.22;4966515;28;7012;-61
2022/06/16 12:11:03;;;;;;;;;;;;;;;29.43;40.17;94612.25;4984024;28;8482;-60
2022/06/16 12:13:55;;;;;;;;;;;;;;;29.44;41.12;94605.44;4984100;28;9151;-60
2022/06/16 12:16:52;;;;;;;;;;;;;;;29.43;41.14;94612.25;4984448;28;9113;-60
2022/06/16 12:19:55;;;;;;;;;;;;;;;29.45;40.57;94609.72;4984619;28;7244;-60
2022/06/16 12:25:52;;;;;;;;;;;;;;;29.46;41.63;94602.88;4980112;28;7278;-61
2022/06/16 12:28:41;;;;;;;;;;;;;;;29.45;40.70;94606.97;4963246;28;8779;-61
2022/06/16 12:31:17;;;;;;;;;;;;;;;29.47;40.34;94609.94;5017893;28;7340;-61
2022/06/16 12:33:59;;;;;;;;;;;;;;;29.49;40.36;94599.78;5053790;28;6972;-61
2022/06/16 12:36:35;;;;;;;;;;;;;;;29.55;40.32;94596.94;5048049;28;7025;-61
2022/06/16 12:39:11;;;;;;;;;;;;;;;29.58;40.61;94601.41;5068689;28;7271;-61
2022/06/16 12:41:50;;;;;;;;;;;;;;;29.56;40.90;94607.47;5066645;28;7001;-61
2022/06/16 12:44:44;;;;;;;;;;;;;;;29.57;41.13;94605.47;5053539;28;7307;-61
2022/06/16 12:47:47;;;;;;;;;;;;;;;29.60;41.10;94596.09;5047563;28;7242;-61
2022/06/16 12:50:38;;;;;;;;;;;;;;;29.61;40.65;94597.56;5042781;28;9073;-61
2022/06/16 12:53:10;;;;;;;;;;;;;;;29.62;40.51;94599.06;5040848;28;8201;-61
2022/06/16 12:55:44;;;;;;;;;;;;;;;29.60;40.39;94596.09;5053244;28;9120;-61
2022/06/16 12:58:41;;;;;;;;;;;;;;;29.59;41.70;94600.13;5072104;28;7060;-61
2022/06/16 13:01:26;;;;;;;;;;;;;;;29.57;40.86;94599.91;5058402;28;7010;-61
2022/06/16 13:04:26;;;;;;;;;;;;;;;29.56;41.60;94598.41;5047993;28;6989;-61
2022/06/16 13:07:08;;;;;;;;;;;;;;;29.55;41.32;94594.16;5054064;28;7633;-61
2022/06/16 13:09:39;;;;;;;;;;;;;;;29.57;41.75;94595.13;5054395;28;7033;-61
2022/06/16 13:12:21;;;;;;;;;;;;;;;29.60;41.02;94601.63;5037161;28;7235;-61
2022/06/16 13:15:01;;;;;;;;;;;;;;;29.63;41.19;94592.25;5051312;28;8085;-60
2022/06/16 13:17:45;;;;;;;;;;;;;;;29.65;42.51;94603.53;5068485;28;8700;-61
2022/06/16 13:20:27;;;;;;;;;;;;;;;29.67;41.98;94598.19;5072096;28;7308;-61
2022/06/16 13:23:01;;;;;;;;;;;;;;;29.68;41.27;94602.47;5066323;28;7207;-61
2022/06/16 13:25:50;;;;;;;;;;;;;;;29.67;41.38;94600.97;5069822;28;7080;-61
2022/06/16 13:28:31;;;;;;;;;;;;;;;29.68;40.74;94596.94;5050813;28;9445;-61
2022/06/16 13:31:23;;;;;;;;;;;;;;;29.70;40.66;94595.13;5035308;28;7285;-61
2022/06/16 13:33:49;;;;;;;;;;;;;;;29.70;40.88;94597.16;5052255;28;9049;-61
2022/06/16 13:36:30;;;;;;;;;;;;;;;29.72;40.68;94591.81;5072676;28;7293;-61
2022/06/16 13:38:56;;;;;;;;;;;;;;;29.69;40.50;94593.63;5062473;28;7076;-61
2022/06/16 13:41:46;;;;;;;;;;;;;;;29.67;41.24;94589.88;5055673;28;7373;-61
2022/06/16 13:44:18;;;;;;;;;;;;;;;29.66;41.01;94599.50;5066189;28;7844;-61
2022/06/16 13:46:57;;;;;;;;;;;;;;;29.65;41.48;94604.28;5067961;28;8720;-61
2022/06/16 13:49:31;;;;;;;;;;;;;;;29.64;40.82;94597.28;5070502;28;9126;-61
2022/06/16 13:52:34;;;;;;;;;;;;;;;29.67;40.27;94590.63;5038769;28;9086;-60
2022/06/16 13:55:11;;;;;;;;;;;;;;;29.68;40.77;94589.38;5040715;28;8818;-61
2022/06/16 13:57:39;;;;;;;;;;;;;;;29.69;41.30;94592.88;5015118;28;9590;-61
2022/06/16 14:00:28;;;;;;;;;;;;;;;29.69;40.64;94590.84;5031303;28;9190;-61
2022/06/16 14:03:04;;;;;;;;;;;;;;;29.71;41.14;94582.75;5031573;28;7234;-61
2022/06/16 14:05:33;;;;;;;;;;;;;;;29.73;40.47;94587.78;5029207;28;7353;-61
2022/06/16 14:08:14;;;;;;;;;;;;;;;29.73;40.73;94590.53;5027722;28;7203;-61
2022/06/16 14:10:53;;;;;;;;;;;;;;;29.71;40.13;94587.56;5026224;28;7364;-61
2022/06/16 14:13:39;;;;;;;;;;;;;;;29.70;41.01;94586.81;5025824;28;7244;-61
2022/06/16 14:16:06;;;;;;;;;;;;;;;29.72;40.58;94587.03;5008903;28;7523;-61
2022/06/16 14:22:26;;;;;;;;;;;;;;;29.68;41.07;94580.31;5027802;28;9118;-61
2022/06/16 14:25:15;;;;;;;;;;;;;;;29.64;40.97;94586.19;4934001;29;7254;-60